sensor_id;sensor_type;location;lat;lon;timestamp;P1;durP1;ratioP1;P2;durP2;ratioP2
33403;SDS011;19751;40.274;18.268;2024-01-16T00:01:51;10.05;;;3.47;;
33403;SDS011;19751;40.274;18.268;2024-01-16T00:04:17;9.27;;;2.92;;
33403;SDS011;19751;40.274;18.268;2024-01-16T00:06:42;9.43;;;4.20;;
33403;SDS011;19751;40.274;18.268;2024-01-16T00:09:08;9.82;;;4.20;;
33403;SDS011;19751;40.274;18.268;2024-01-16T00:11:43;7.07;;;3.55;;
33403;SDS011;19751;40.274;18.268;2024-01-16T00:14:09;9.68;;;3.15;;
33403;SDS011;19751;40.274;18.268;2024-01-16T00:16:46;10.98;;;4.50;;
33403;SDS011;19751;40.274;18.268;2024-01-16T00:19:15;7.53;;;2.17;;
33403;SDS011;19751;40.274;18.268;2024-01-16T00:21:41;12.88;;;3.03;;
33403;SDS011;19751;40.274;18.268;2024-01-16T00:24:07;8.30;;;2.05;;
33403;SDS011;19751;40.274;18.268;2024-01-16T00:26:33;8.90;;;2.42;;
33403;SDS011;19751;40.274;18.268;2024-01-16T00:28:58;15.90;;;3.20;;
33403;SDS011;19751;40.274;18.268;2024-01-16T00:31:24;13.57;;;2.78;;
33403;SDS011;19751;40.274;18.268;2024-01-16T00:33:49;9.30;;;2.30;;
33403;SDS011;19751;40.274;18.268;2024-01-16T00:36:15;7.43;;;2.13;;
33403;SDS011;19751;40.274;18.268;2024-01-16T00:38:40;7.65;;;2.72;;
33403;SDS011;19751;40.274;18.268;2024-01-16T00:41:06;12.07;;;2.78;;
33403;SDS011;19751;40.274;18.268;2024-01-16T00:43:32;10.85;;;2.35;;
33403;SDS011;19751;40.274;18.268;2024-01-16T00:45:58;7.43;;;2.05;;
33403;SDS011;19751;40.274;18.268;2024-01-16T00:48:23;9.00;;;2.88;;
33403;SDS011;19751;40.274;18.268;2024-01-16T00:50:49;6.70;;;2.22;;
33403;SDS011;19751;40.274;18.268;2024-01-16T00:53:18;9.95;;;3.25;;
33403;SDS011;19751;40.274;18.268;2024-01-16T00:55:43;5.35;;;1.52;;
33403;SDS011;19751;40.274;18.268;2024-01-16T00:58:09;4.65;;;1.73;;
33403;SDS011;19751;40.274;18.268;2024-01-16T01:00:35;10.85;;;2.65;;
33403;SDS011;19751;40.274;18.268;2024-01-16T01:03:02;7.25;;;2.00;;
33403;SDS011;19751;40.274;18.268;2024-01-16T01:05:29;7.82;;;2.30;;
33403;SDS011;19751;40.274;18.268;2024-01-16T01:07:55;13.07;;;2.67;;
33403;SDS011;19751;40.274;18.268;2024-01-16T01:10:21;6.85;;;1.80;;
33403;SDS011;19751;40.274;18.268;2024-01-16T01:12:47;9.40;;;2.28;;
33403;SDS011;19751;40.274;18.268;2024-01-16T01:15:12;10.00;;;2.65;;
33403;SDS011;19751;40.274;18.268;2024-01-16T01:17:39;9.68;;;2.38;;
33403;SDS011;19751;40.274;18.268;2024-01-16T01:20:05;9.93;;;2.10;;
33403;SDS011;19751;40.274;18.268;2024-01-16T01:22:31;9.93;;;2.33;;
33403;SDS011;19751;40.274;18.268;2024-01-16T01:24:57;11.15;;;2.15;;
33403;SDS011;19751;40.274;18.268;2024-01-16T01:27:23;8.80;;;2.08;;
33403;SDS011;19751;40.274;18.268;2024-01-16T01:29:48;8.63;;;2.58;;
33403;SDS011;19751;40.274;18.268;2024-01-16T01:32:14;12.05;;;2.50;;
33403;SDS011;19751;40.274;18.268;2024-01-16T01:34:41;9.68;;;2.28;;
33403;SDS011;19751;40.274;18.268;2024-01-16T01:37:07;9.88;;;2.22;;
33403;SDS011;19751;40.274;18.268;2024-01-16T01:39:32;18.35;;;2.47;;
33403;SDS011;19751;40.274;18.268;2024-01-16T01:41:58;12.52;;;2.38;;
33403;SDS011;19751;40.274;18.268;2024-01-16T01:44:23;12.32;;;3.10;;
33403;SDS011;19751;40.274;18.268;2024-01-16T01:46:50;13.25;;;2.55;;
33403;SDS011;19751;40.274;18.268;2024-01-16T01:49:16;11.38;;;3.15;;
33403;SDS011;19751;40.274;18.268;2024-01-16T01:51:42;8.43;;;1.90;;
33403;SDS011;19751;40.274;18.268;2024-01-16T01:54:08;7.80;;;2.72;;
33403;SDS011;19751;40.274;18.268;2024-01-16T01:56:35;10.25;;;1.92;;
33403;SDS011;19751;40.274;18.268;2024-01-16T01:59:01;10.18;;;2.47;;
33403;SDS011;19751;40.274;18.268;2024-01-16T02:01:27;12.80;;;3.13;;
33403;SDS011;19751;40.274;18.268;2024-01-16T02:03:55;24.02;;;3.33;;
33403;SDS011;19751;40.274;18.268;2024-01-16T02:06:21;10.50;;;2.38;;
33403;SDS011;19751;40.274;18.268;2024-01-16T02:08:47;9.55;;;2.60;;
33403;SDS011;19751;40.274;18.268;2024-01-16T02:11:13;13.63;;;2.15;;
33403;SDS011;19751;40.274;18.268;2024-01-16T02:13:40;10.20;;;3.95;;
33403;SDS011;19751;40.274;18.268;2024-01-16T02:16:16;13.90;;;2.85;;
33403;SDS011;19751;40.274;18.268;2024-01-16T02:18:43;7.88;;;1.65;;
33403;SDS011;19751;40.274;18.268;2024-01-16T02:21:08;9.63;;;2.13;;
33403;SDS011;19751;40.274;18.268;2024-01-16T02:23:34;10.18;;;2.15;;
33403;SDS011;19751;40.274;18.268;2024-01-16T02:25:59;9.63;;;1.83;;
33403;SDS011;19751;40.274;18.268;2024-01-16T02:28:26;6.93;;;2.30;;
33403;SDS011;19751;40.274;18.268;2024-01-16T02:30:51;6.70;;;2.03;;
33403;SDS011;19751;40.274;18.268;2024-01-16T02:33:17;9.00;;;2.55;;
33403;SDS011;19751;40.274;18.268;2024-01-16T02:35:42;8.43;;;1.63;;
33403;SDS011;19751;40.274;18.268;2024-01-16T02:38:08;4.63;;;1.33;;
33403;SDS011;19751;40.274;18.268;2024-01-16T02:40:34;10.15;;;2.30;;
33403;SDS011;19751;40.274;18.268;2024-01-16T02:42:59;10.10;;;2.67;;
33403;SDS011;19751;40.274;18.268;2024-01-16T02:45:24;9.60;;;2.90;;
33403;SDS011;19751;40.274;18.268;2024-01-16T02:47:50;10.27;;;1.90;;
33403;SDS011;19751;40.274;18.268;2024-01-16T02:50:15;6.88;;;2.05;;
33403;SDS011;19751;40.274;18.268;2024-01-16T02:52:41;8.75;;;1.80;;
33403;SDS011;19751;40.274;18.268;2024-01-16T02:55:07;8.13;;;2.22;;
33403;SDS011;19751;40.274;18.268;2024-01-16T02:57:33;8.75;;;2.70;;
33403;SDS011;19751;40.274;18.268;2024-01-16T02:59:58;11.40;;;1.88;;
33403;SDS011;19751;40.274;18.268;2024-01-16T03:02:24;11.35;;;2.47;;
33403;SDS011;19751;40.274;18.268;2024-01-16T03:04:49;6.88;;;2.42;;
33403;SDS011;19751;40.274;18.268;2024-01-16T03:07:15;11.20;;;2.22;;
33403;SDS011;19751;40.274;18.268;2024-01-16T03:09:40;10.55;;;2.55;;
33403;SDS011;19751;40.274;18.268;2024-01-16T03:12:06;10.38;;;2.25;;
33403;SDS011;19751;40.274;18.268;2024-01-16T03:14:31;7.32;;;1.60;;
33403;SDS011;19751;40.274;18.268;2024-01-16T03:17:02;13.52;;;2.72;;
33403;SDS011;19751;40.274;18.268;2024-01-16T03:19:28;10.95;;;2.20;;
33403;SDS011;19751;40.274;18.268;2024-01-16T03:21:54;4.85;;;1.83;;
33403;SDS011;19751;40.274;18.268;2024-01-16T03:24:19;10.15;;;2.30;;
33403;SDS011;19751;40.274;18.268;2024-01-16T03:26:45;9.82;;;1.88;;
33403;SDS011;19751;40.274;18.268;2024-01-16T03:29:11;9.80;;;2.00;;
33403;SDS011;19751;40.274;18.268;2024-01-16T03:31:36;8.50;;;2.60;;
33403;SDS011;19751;40.274;18.268;2024-01-16T03:34:02;9.38;;;1.98;;
33403;SDS011;19751;40.274;18.268;2024-01-16T03:36:28;6.88;;;1.63;;
33403;SDS011;19751;40.274;18.268;2024-01-16T03:38:53;16.67;;;2.53;;
33403;SDS011;19751;40.274;18.268;2024-01-16T03:41:19;8.73;;;2.88;;
33403;SDS011;19751;40.274;18.268;2024-01-16T03:43:44;12.73;;;2.58;;
33403;SDS011;19751;40.274;18.268;2024-01-16T03:46:10;6.68;;;2.42;;
33403;SDS011;19751;40.274;18.268;2024-01-16T03:48:36;8.70;;;1.60;;
33403;SDS011;19751;40.274;18.268;2024-01-16T03:51:02;15.98;;;3.45;;
33403;SDS011;19751;40.274;18.268;2024-01-16T03:53:27;7.25;;;2.38;;
33403;SDS011;19751;40.274;18.268;2024-01-16T03:55:53;8.48;;;1.88;;
33403;SDS011;19751;40.274;18.268;2024-01-16T03:58:18;14.68;;;2.83;;
33403;SDS011;19751;40.274;18.268;2024-01-16T04:00:44;12.02;;;2.38;;
33403;SDS011;19751;40.274;18.268;2024-01-16T04:03:10;10.63;;;2.83;;
33403;SDS011;19751;40.274;18.268;2024-01-16T04:05:36;12.80;;;2.30;;
33403;SDS011;19751;40.274;18.268;2024-01-16T04:08:02;9.60;;;2.28;;
33403;SDS011;19751;40.274;18.268;2024-01-16T04:10:27;8.60;;;2.00;;
33403;SDS011;19751;40.274;18.268;2024-01-16T04:12:53;15.90;;;3.78;;
33403;SDS011;19751;40.274;18.268;2024-01-16T04:15:18;14.27;;;2.42;;
33403;SDS011;19751;40.274;18.268;2024-01-16T04:17:44;12.23;;;2.70;;
33403;SDS011;19751;40.274;18.268;2024-01-16T04:20:09;7.95;;;1.95;;
33403;SDS011;19751;40.274;18.268;2024-01-16T04:22:35;9.30;;;2.88;;
33403;SDS011;19751;40.274;18.268;2024-01-16T04:25:01;11.10;;;2.22;;
33403;SDS011;19751;40.274;18.268;2024-01-16T04:27:29;4.53;;;1.75;;
33403;SDS011;19751;40.274;18.268;2024-01-16T04:29:55;6.43;;;2.30;;
33403;SDS011;19751;40.274;18.268;2024-01-16T04:32:21;8.70;;;2.45;;
33403;SDS011;19751;40.274;18.268;2024-01-16T04:34:47;12.70;;;3.03;;
33403;SDS011;19751;40.274;18.268;2024-01-16T04:37:12;17.33;;;3.38;;
33403;SDS011;19751;40.274;18.268;2024-01-16T04:39:38;7.38;;;2.35;;
33403;SDS011;19751;40.274;18.268;2024-01-16T04:42:03;14.25;;;2.67;;
33403;SDS011;19751;40.274;18.268;2024-01-16T04:44:29;10.75;;;2.90;;
33403;SDS011;19751;40.274;18.268;2024-01-16T04:46:54;5.53;;;2.50;;
33403;SDS011;19751;40.274;18.268;2024-01-16T04:49:20;17.55;;;4.13;;
33403;SDS011;19751;40.274;18.268;2024-01-16T04:51:45;11.77;;;2.92;;
33403;SDS011;19751;40.274;18.268;2024-01-16T04:54:12;7.15;;;2.40;;
33403;SDS011;19751;40.274;18.268;2024-01-16T04:56:37;9.95;;;2.65;;
33403;SDS011;19751;40.274;18.268;2024-01-16T04:59:03;10.60;;;2.53;;
33403;SDS011;19751;40.274;18.268;2024-01-16T05:01:29;7.78;;;3.00;;
33403;SDS011;19751;40.274;18.268;2024-01-16T05:03:54;9.55;;;2.92;;
33403;SDS011;19751;40.274;18.268;2024-01-16T05:06:20;9.57;;;2.70;;
33403;SDS011;19751;40.274;18.268;2024-01-16T05:08:46;16.80;;;4.05;;
33403;SDS011;19751;40.274;18.268;2024-01-16T05:11:12;14.23;;;3.55;;
33403;SDS011;19751;40.274;18.268;2024-01-16T05:13:37;16.40;;;3.83;;
33403;SDS011;19751;40.274;18.268;2024-01-16T05:16:03;12.10;;;3.85;;
33403;SDS011;19751;40.274;18.268;2024-01-16T05:18:29;13.68;;;2.75;;
33403;SDS011;19751;40.274;18.268;2024-01-16T05:20:54;9.02;;;2.92;;
33403;SDS011;19751;40.274;18.268;2024-01-16T05:23:21;10.13;;;2.85;;
33403;SDS011;19751;40.274;18.268;2024-01-16T05:25:47;10.93;;;3.38;;
33403;SDS011;19751;40.274;18.268;2024-01-16T05:28:12;8.98;;;2.38;;
33403;SDS011;19751;40.274;18.268;2024-01-16T05:30:38;9.95;;;3.15;;
33403;SDS011;19751;40.274;18.268;2024-01-16T05:33:03;5.05;;;1.85;;
33403;SDS011;19751;40.274;18.268;2024-01-16T05:35:29;7.20;;;2.55;;
33403;SDS011;19751;40.274;18.268;2024-01-16T05:37:55;8.02;;;2.13;;
33403;SDS011;19751;40.274;18.268;2024-01-16T05:40:21;11.00;;;2.03;;
33403;SDS011;19751;40.274;18.268;2024-01-16T05:42:49;6.05;;;1.77;;
33403;SDS011;19751;40.274;18.268;2024-01-16T05:45:15;9.05;;;2.00;;
33403;SDS011;19751;40.274;18.268;2024-01-16T05:47:41;3.55;;;2.10;;
33403;SDS011;19751;40.274;18.268;2024-01-16T05:50:07;11.68;;;3.22;;
33403;SDS011;19751;40.274;18.268;2024-01-16T05:52:34;6.70;;;2.65;;
33403;SDS011;19751;40.274;18.268;2024-01-16T05:55:00;7.15;;;1.77;;
33403;SDS011;19751;40.274;18.268;2024-01-16T05:57:27;5.18;;;1.80;;
33403;SDS011;19751;40.274;18.268;2024-01-16T05:59:54;7.30;;;1.90;;
33403;SDS011;19751;40.274;18.268;2024-01-16T06:02:20;29.80;;;6.03;;
33403;SDS011;19751;40.274;18.268;2024-01-16T06:04:45;17.95;;;10.15;;
33403;SDS011;19751;40.274;18.268;2024-01-16T06:07:11;16.65;;;6.28;;
33403;SDS011;19751;40.274;18.268;2024-01-16T06:09:39;21.33;;;10.45;;
33403;SDS011;19751;40.274;18.268;2024-01-16T06:12:05;22.42;;;13.80;;
33403;SDS011;19751;40.274;18.268;2024-01-16T06:14:32;17.90;;;10.68;;
33403;SDS011;19751;40.274;18.268;2024-01-16T06:16:58;21.98;;;9.15;;
33403;SDS011;19751;40.274;18.268;2024-01-16T06:19:24;18.45;;;5.63;;
33403;SDS011;19751;40.274;18.268;2024-01-16T06:21:49;12.82;;;5.32;;
33403;SDS011;19751;40.274;18.268;2024-01-16T06:24:15;10.43;;;3.78;;
33403;SDS011;19751;40.274;18.268;2024-01-16T06:26:41;10.88;;;2.75;;
33403;SDS011;19751;40.274;18.268;2024-01-16T06:29:07;8.68;;;2.92;;
33403;SDS011;19751;40.274;18.268;2024-01-16T06:31:33;9.48;;;2.95;;
33403;SDS011;19751;40.274;18.268;2024-01-16T06:33:58;12.80;;;2.95;;
33403;SDS011;19751;40.274;18.268;2024-01-16T06:36:24;11.45;;;3.10;;
33403;SDS011;19751;40.274;18.268;2024-01-16T06:38:49;8.27;;;2.90;;
33403;SDS011;19751;40.274;18.268;2024-01-16T06:41:15;20.35;;;4.05;;
33403;SDS011;19751;40.274;18.268;2024-01-16T06:43:40;12.48;;;3.97;;
33403;SDS011;19751;40.274;18.268;2024-01-16T06:46:06;10.45;;;4.72;;
33403;SDS011;19751;40.274;18.268;2024-01-16T06:48:31;14.52;;;4.88;;
33403;SDS011;19751;40.274;18.268;2024-01-16T06:50:57;11.25;;;4.53;;
33403;SDS011;19751;40.274;18.268;2024-01-16T06:53:23;14.13;;;5.13;;
33403;SDS011;19751;40.274;18.268;2024-01-16T06:55:48;14.82;;;5.50;;
33403;SDS011;19751;40.274;18.268;2024-01-16T06:58:14;12.43;;;5.20;;
33403;SDS011;19751;40.274;18.268;2024-01-16T07:00:39;9.63;;;4.88;;
33403;SDS011;19751;40.274;18.268;2024-01-16T07:03:06;17.17;;;6.35;;
33403;SDS011;19751;40.274;18.268;2024-01-16T07:05:32;11.95;;;4.25;;
33403;SDS011;19751;40.274;18.268;2024-01-16T07:07:58;10.70;;;4.18;;
33403;SDS011;19751;40.274;18.268;2024-01-16T07:10:23;7.55;;;3.72;;
33403;SDS011;19751;40.274;18.268;2024-01-16T07:12:49;13.85;;;3.90;;
33403;SDS011;19751;40.274;18.268;2024-01-16T07:15:16;9.73;;;3.45;;
33403;SDS011;19751;40.274;18.268;2024-01-16T07:17:42;8.57;;;3.67;;
33403;SDS011;19751;40.274;18.268;2024-01-16T07:20:08;14.90;;;5.45;;
33403;SDS011;19751;40.274;18.268;2024-01-16T07:22:34;12.70;;;4.10;;
33403;SDS011;19751;40.274;18.268;2024-01-16T07:24:59;10.93;;;3.25;;
33403;SDS011;19751;40.274;18.268;2024-01-16T07:27:25;10.93;;;4.35;;
33403;SDS011;19751;40.274;18.268;2024-01-16T07:29:51;8.73;;;4.18;;
33403;SDS011;19751;40.274;18.268;2024-01-16T07:32:16;9.20;;;4.10;;
33403;SDS011;19751;40.274;18.268;2024-01-16T07:34:42;8.98;;;3.92;;
33403;SDS011;19751;40.274;18.268;2024-01-16T07:37:07;8.45;;;3.97;;
33403;SDS011;19751;40.274;18.268;2024-01-16T07:39:33;11.80;;;3.70;;
33403;SDS011;19751;40.274;18.268;2024-01-16T07:41:58;8.90;;;4.90;;
33403;SDS011;19751;40.274;18.268;2024-01-16T07:44:24;9.52;;;4.55;;
33403;SDS011;19751;40.274;18.268;2024-01-16T07:46:49;11.88;;;5.22;;
33403;SDS011;19751;40.274;18.268;2024-01-16T07:49:15;8.30;;;3.92;;
33403;SDS011;19751;40.274;18.268;2024-01-16T07:51:41;9.93;;;3.88;;
33403;SDS011;19751;40.274;18.268;2024-01-16T07:54:10;11.48;;;4.18;;
33403;SDS011;19751;40.274;18.268;2024-01-16T07:56:35;9.63;;;4.35;;
33403;SDS011;19751;40.274;18.268;2024-01-16T07:59:02;8.88;;;4.30;;
33403;SDS011;19751;40.274;18.268;2024-01-16T08:01:28;10.85;;;4.15;;
33403;SDS011;19751;40.274;18.268;2024-01-16T08:03:54;9.05;;;4.43;;
33403;SDS011;19751;40.274;18.268;2024-01-16T08:06:20;13.73;;;4.63;;
33403;SDS011;19751;40.274;18.268;2024-01-16T08:08:47;8.77;;;3.80;;
33403;SDS011;19751;40.274;18.268;2024-01-16T08:11:13;10.30;;;3.83;;
33403;SDS011;19751;40.274;18.268;2024-01-16T08:13:39;6.20;;;2.72;;
33403;SDS011;19751;40.274;18.268;2024-01-16T08:16:05;8.32;;;2.97;;
33403;SDS011;19751;40.274;18.268;2024-01-16T08:18:31;10.38;;;3.97;;
33403;SDS011;19751;40.274;18.268;2024-01-16T08:20:57;10.70;;;2.88;;
33403;SDS011;19751;40.274;18.268;2024-01-16T08:23:22;8.18;;;2.75;;
33403;SDS011;19751;40.274;18.268;2024-01-16T08:25:48;5.45;;;2.05;;
33403;SDS011;19751;40.274;18.268;2024-01-16T08:28:14;6.53;;;2.30;;
33403;SDS011;19751;40.274;18.268;2024-01-16T08:30:40;6.93;;;2.58;;
33403;SDS011;19751;40.274;18.268;2024-01-16T08:33:05;5.60;;;2.10;;
33403;SDS011;19751;40.274;18.268;2024-01-16T08:35:31;5.13;;;2.28;;
33403;SDS011;19751;40.274;18.268;2024-01-16T08:37:56;7.07;;;2.00;;
33403;SDS011;19751;40.274;18.268;2024-01-16T08:40:22;5.28;;;1.80;;
33403;SDS011;19751;40.274;18.268;2024-01-16T08:42:47;5.07;;;1.48;;
33403;SDS011;19751;40.274;18.268;2024-01-16T08:45:16;3.83;;;1.30;;
33403;SDS011;19751;40.274;18.268;2024-01-16T08:47:42;4.20;;;1.65;;
33403;SDS011;19751;40.274;18.268;2024-01-16T08:50:08;9.90;;;2.28;;
33403;SDS011;19751;40.274;18.268;2024-01-16T08:52:34;7.43;;;2.00;;
33403;SDS011;19751;40.274;18.268;2024-01-16T08:55:00;3.80;;;1.38;;
33403;SDS011;19751;40.274;18.268;2024-01-16T08:57:26;9.18;;;2.08;;
33403;SDS011;19751;40.274;18.268;2024-01-16T08:59:52;7.25;;;3.33;;
33403;SDS011;19751;40.274;18.268;2024-01-16T09:02:18;8.10;;;2.55;;
33403;SDS011;19751;40.274;18.268;2024-01-16T09:04:44;5.53;;;2.45;;
33403;SDS011;19751;40.274;18.268;2024-01-16T09:07:10;5.13;;;1.90;;
33403;SDS011;19751;40.274;18.268;2024-01-16T09:09:36;9.30;;;2.00;;
33403;SDS011;19751;40.274;18.268;2024-01-16T09:12:01;10.98;;;2.72;;
33403;SDS011;19751;40.274;18.268;2024-01-16T09:14:28;6.05;;;2.80;;
33403;SDS011;19751;40.274;18.268;2024-01-16T09:16:54;7.70;;;2.20;;
33403;SDS011;19751;40.274;18.268;2024-01-16T09:19:19;4.82;;;1.83;;
33403;SDS011;19751;40.274;18.268;2024-01-16T09:21:45;10.30;;;2.90;;
33403;SDS011;19751;40.274;18.268;2024-01-16T09:24:10;11.70;;;3.03;;
33403;SDS011;19751;40.274;18.268;2024-01-16T09:26:37;8.93;;;3.58;;
33403;SDS011;19751;40.274;18.268;2024-01-16T09:29:03;9.70;;;5.57;;
33403;SDS011;19751;40.274;18.268;2024-01-16T09:31:28;13.48;;;5.07;;
33403;SDS011;19751;40.274;18.268;2024-01-16T09:33:54;12.05;;;5.25;;
33403;SDS011;19751;40.274;18.268;2024-01-16T09:36:19;12.73;;;3.92;;
33403;SDS011;19751;40.274;18.268;2024-01-16T09:38:45;6.90;;;3.60;;
33403;SDS011;19751;40.274;18.268;2024-01-16T09:41:10;9.27;;;3.67;;
33403;SDS011;19751;40.274;18.268;2024-01-16T09:43:36;8.75;;;2.55;;
33403;SDS011;19751;40.274;18.268;2024-01-16T09:46:02;10.63;;;2.08;;
33403;SDS011;19751;40.274;18.268;2024-01-16T09:48:31;10.07;;;2.80;;
33403;SDS011;19751;40.274;18.268;2024-01-16T09:50:56;13.95;;;4.45;;
33403;SDS011;19751;40.274;18.268;2024-01-16T09:53:22;12.45;;;3.67;;
33403;SDS011;19751;40.274;18.268;2024-01-16T09:55:48;8.45;;;2.85;;
33403;SDS011;19751;40.274;18.268;2024-01-16T09:58:15;8.07;;;2.45;;
33403;SDS011;19751;40.274;18.268;2024-01-16T10:00:44;5.70;;;2.38;;
33403;SDS011;19751;40.274;18.268;2024-01-16T10:03:12;6.97;;;3.22;;
33403;SDS011;19751;40.274;18.268;2024-01-16T10:05:42;4.78;;;1.95;;
33403;SDS011;19751;40.274;18.268;2024-01-16T10:08:08;5.68;;;1.88;;
33403;SDS011;19751;40.274;18.268;2024-01-16T10:10:34;10.60;;;3.13;;
33403;SDS011;19751;40.274;18.268;2024-01-16T10:12:59;7.38;;;1.83;;
33403;SDS011;19751;40.274;18.268;2024-01-16T10:15:25;8.43;;;2.63;;
33403;SDS011;19751;40.274;18.268;2024-01-16T10:17:51;5.00;;;1.95;;
33403;SDS011;19751;40.274;18.268;2024-01-16T10:20:18;11.88;;;2.88;;
33403;SDS011;19751;40.274;18.268;2024-01-16T10:22:57;5.28;;;1.90;;
33403;SDS011;19751;40.274;18.268;2024-01-16T10:25:23;9.38;;;2.72;;
33403;SDS011;19751;40.274;18.268;2024-01-16T10:27:49;10.25;;;3.63;;
33403;SDS011;19751;40.274;18.268;2024-01-16T10:30:28;11.95;;;3.95;;
33403;SDS011;19751;40.274;18.268;2024-01-16T10:32:54;13.73;;;4.55;;
33403;SDS011;19751;40.274;18.268;2024-01-16T10:35:22;10.05;;;4.20;;
33403;SDS011;19751;40.274;18.268;2024-01-16T10:37:51;16.98;;;4.35;;
33403;SDS011;19751;40.274;18.268;2024-01-16T10:40:19;12.23;;;3.08;;
33403;SDS011;19751;40.274;18.268;2024-01-16T10:43:02;7.65;;;2.38;;
33403;SDS011;19751;40.274;18.268;2024-01-16T10:45:29;10.77;;;3.38;;
33403;SDS011;19751;40.274;18.268;2024-01-16T10:48:04;8.98;;;3.08;;
33403;SDS011;19751;40.274;18.268;2024-01-16T10:50:31;11.38;;;2.25;;
33403;SDS011;19751;40.274;18.268;2024-01-16T10:53:04;8.20;;;2.40;;
33403;SDS011;19751;40.274;18.268;2024-01-16T10:55:31;4.90;;;2.07;;
33403;SDS011;19751;40.274;18.268;2024-01-16T10:58:23;10.80;;;3.28;;
33403;SDS011;19751;40.274;18.268;2024-01-16T11:00:51;4.55;;;1.88;;
33403;SDS011;19751;40.274;18.268;2024-01-16T11:03:18;4.70;;;1.40;;
33403;SDS011;19751;40.274;18.268;2024-01-16T11:05:50;3.25;;;1.67;;
33403;SDS011;19751;40.274;18.268;2024-01-16T11:08:17;6.53;;;2.15;;
33403;SDS011;19751;40.274;18.268;2024-01-16T11:10:44;3.90;;;1.60;;
33403;SDS011;19751;40.274;18.268;2024-01-16T11:13:10;4.35;;;1.60;;
33403;SDS011;19751;40.274;18.268;2024-01-16T11:15:37;5.30;;;2.17;;
33403;SDS011;19751;40.274;18.268;2024-01-16T11:18:04;3.92;;;1.75;;
33403;SDS011;19751;40.274;18.268;2024-01-16T11:20:31;5.05;;;2.05;;
33403;SDS011;19751;40.274;18.268;2024-01-16T11:22:59;7.00;;;2.63;;
33403;SDS011;19751;40.274;18.268;2024-01-16T11:25:35;7.72;;;2.35;;
33403;SDS011;19751;40.274;18.268;2024-01-16T11:28:07;4.28;;;2.00;;
33403;SDS011;19751;40.274;18.268;2024-01-16T11:30:35;5.25;;;2.35;;
33403;SDS011;19751;40.274;18.268;2024-01-16T11:33:01;11.48;;;2.38;;
33403;SDS011;19751;40.274;18.268;2024-01-16T11:35:33;5.30;;;2.00;;
33403;SDS011;19751;40.274;18.268;2024-01-16T11:38:14;6.70;;;1.98;;
33403;SDS011;19751;40.274;18.268;2024-01-16T11:40:41;5.40;;;2.17;;
33403;SDS011;19751;40.274;18.268;2024-01-16T11:43:50;5.53;;;2.47;;
33403;SDS011;19751;40.274;18.268;2024-01-16T11:45:58;10.85;;;2.63;;
33403;SDS011;19751;40.274;18.268;2024-01-16T11:48:24;4.63;;;2.05;;
33403;SDS011;19751;40.274;18.268;2024-01-16T11:50:50;5.95;;;2.47;;
33403;SDS011;19751;40.274;18.268;2024-01-16T11:53:35;7.07;;;2.50;;
33403;SDS011;19751;40.274;18.268;2024-01-16T12:01:50;4.80;;;2.67;;
33403;SDS011;19751;40.274;18.268;2024-01-16T12:04:22;5.32;;;2.42;;
33403;SDS011;19751;40.274;18.268;2024-01-16T12:07:06;6.63;;;2.88;;
33403;SDS011;19751;40.274;18.268;2024-01-16T12:09:32;4.40;;;1.75;;
33403;SDS011;19751;40.274;18.268;2024-01-16T12:12:02;7.18;;;2.75;;
33403;SDS011;19751;40.274;18.268;2024-01-16T12:14:28;8.27;;;2.35;;
33403;SDS011;19751;40.274;18.268;2024-01-16T12:17:13;3.58;;;2.03;;
33403;SDS011;19751;40.274;18.268;2024-01-16T12:19:39;8.82;;;2.15;;
33403;SDS011;19751;40.274;18.268;2024-01-16T12:22:08;10.15;;;2.22;;
33403;SDS011;19751;40.274;18.268;2024-01-16T12:24:38;4.72;;;1.70;;
33403;SDS011;19751;40.274;18.268;2024-01-16T12:27:04;7.57;;;2.65;;
33403;SDS011;19751;40.274;18.268;2024-01-16T12:29:30;7.95;;;2.40;;
33403;SDS011;19751;40.274;18.268;2024-01-16T12:32:06;15.07;;;2.40;;
33403;SDS011;19751;40.274;18.268;2024-01-16T12:34:43;8.70;;;2.80;;
33403;SDS011;19751;40.274;18.268;2024-01-16T12:37:12;10.15;;;2.40;;
33403;SDS011;19751;40.274;18.268;2024-01-16T12:39:38;8.40;;;2.78;;
33403;SDS011;19751;40.274;18.268;2024-01-16T12:42:06;8.25;;;2.22;;
33403;SDS011;19751;40.274;18.268;2024-01-16T12:44:34;6.38;;;2.67;;
33403;SDS011;19751;40.274;18.268;2024-01-16T12:47:01;5.22;;;1.60;;
33403;SDS011;19751;40.274;18.268;2024-01-16T12:49:27;7.40;;;2.08;;
33403;SDS011;19751;40.274;18.268;2024-01-16T12:52:14;8.60;;;2.40;;
33403;SDS011;19751;40.274;18.268;2024-01-16T12:54:56;8.32;;;2.55;;
33403;SDS011;19751;40.274;18.268;2024-01-16T12:57:24;6.78;;;2.38;;
33403;SDS011;19751;40.274;18.268;2024-01-16T12:59:50;7.78;;;2.60;;
33403;SDS011;19751;40.274;18.268;2024-01-16T13:02:23;13.63;;;3.10;;
33403;SDS011;19751;40.274;18.268;2024-01-16T13:04:59;6.30;;;2.20;;
33403;SDS011;19751;40.274;18.268;2024-01-16T13:07:27;6.38;;;2.15;;
33403;SDS011;19751;40.274;18.268;2024-01-16T13:10:08;8.50;;;2.53;;
33403;SDS011;19751;40.274;18.268;2024-01-16T13:12:41;8.68;;;2.90;;
33403;SDS011;19751;40.274;18.268;2024-01-16T13:15:07;10.70;;;3.15;;
33403;SDS011;19751;40.274;18.268;2024-01-16T13:17:35;10.52;;;2.28;;
33403;SDS011;19751;40.274;18.268;2024-01-16T13:20:01;8.70;;;2.95;;
33403;SDS011;19751;40.274;18.268;2024-01-16T13:22:28;8.02;;;1.60;;
33403;SDS011;19751;40.274;18.268;2024-01-16T13:24:54;5.95;;;2.47;;
33403;SDS011;19751;40.274;18.268;2024-01-16T13:27:20;6.45;;;2.25;;
33403;SDS011;19751;40.274;18.268;2024-01-16T13:29:46;7.55;;;3.47;;
33403;SDS011;19751;40.274;18.268;2024-01-16T13:32:11;15.73;;;4.05;;
33403;SDS011;19751;40.274;18.268;2024-01-16T13:34:38;6.47;;;1.85;;
33403;SDS011;19751;40.274;18.268;2024-01-16T13:37:04;8.52;;;2.53;;
33403;SDS011;19751;40.274;18.268;2024-01-16T13:39:29;6.63;;;2.05;;
33403;SDS011;19751;40.274;18.268;2024-01-16T13:42:01;5.40;;;2.20;;
33403;SDS011;19751;40.274;18.268;2024-01-16T13:44:30;8.60;;;2.17;;
33403;SDS011;19751;40.274;18.268;2024-01-16T13:46:56;5.88;;;2.45;;
33403;SDS011;19751;40.274;18.268;2024-01-16T13:49:21;13.73;;;2.45;;
33403;SDS011;19751;40.274;18.268;2024-01-16T13:51:47;8.35;;;2.65;;
33403;SDS011;19751;40.274;18.268;2024-01-16T13:54:12;12.10;;;3.78;;
33403;SDS011;19751;40.274;18.268;2024-01-16T13:56:38;6.18;;;1.88;;
33403;SDS011;19751;40.274;18.268;2024-01-16T13:59:04;5.43;;;2.05;;
33403;SDS011;19751;40.274;18.268;2024-01-16T14:01:29;13.50;;;3.85;;
33403;SDS011;19751;40.274;18.268;2024-01-16T14:03:55;5.47;;;2.20;;
33403;SDS011;19751;40.274;18.268;2024-01-16T14:06:20;10.57;;;2.47;;
33403;SDS011;19751;40.274;18.268;2024-01-16T14:08:46;4.78;;;1.98;;
33403;SDS011;19751;40.274;18.268;2024-01-16T14:11:11;8.07;;;2.60;;
33403;SDS011;19751;40.274;18.268;2024-01-16T14:13:37;10.25;;;2.28;;
33403;SDS011;19751;40.274;18.268;2024-01-16T14:16:02;10.27;;;2.65;;
33403;SDS011;19751;40.274;18.268;2024-01-16T14:18:28;11.15;;;2.28;;
33403;SDS011;19751;40.274;18.268;2024-01-16T14:20:54;7.47;;;2.10;;
33403;SDS011;19751;40.274;18.268;2024-01-16T14:23:19;6.22;;;2.38;;
33403;SDS011;19751;40.274;18.268;2024-01-16T14:25:45;10.13;;;2.70;;
33403;SDS011;19751;40.274;18.268;2024-01-16T14:28:11;6.85;;;2.30;;
33403;SDS011;19751;40.274;18.268;2024-01-16T14:30:39;8.38;;;3.70;;
33403;SDS011;19751;40.274;18.268;2024-01-16T14:33:05;6.40;;;2.95;;